sensor_id;sensor_type;location;lat;lon;timestamp;temperature;humidity
22698;DHT22;11516;51.612;7.510;2023-02-15T00:00:15;3.20;99.90
22698;DHT22;11516;51.612;7.510;2023-02-15T00:02:41;3.20;99.90
22698;DHT22;11516;51.612;7.510;2023-02-15T00:05:07;3.20;99.90
22698;DHT22;11516;51.612;7.510;2023-02-15T00:07:33;3.20;99.90
22698;DHT22;11516;51.612;7.510;2023-02-15T00:09:58;3.20;99.90
22698;DHT22;11516;51.612;7.510;2023-02-15T00:12:24;3.20;99.90
22698;DHT22;11516;51.612;7.510;2023-02-15T00:14:49;3.20;99.90
22698;DHT22;11516;51.612;7.510;2023-02-15T00:17:15;3.20;99.90
22698;DHT22;11516;51.612;7.510;2023-02-15T00:19:40;3.10;99.90
22698;DHT22;11516;51.612;7.510;2023-02-15T00:22:06;3.10;99.90
22698;DHT22;11516;51.612;7.510;2023-02-15T00:24:32;3.00;99.90
22698;DHT22;11516;51.612;7.510;2023-02-15T00:26:58;3.00;99.90
22698;DHT22;11516;51.612;7.510;2023-02-15T00:29:24;3.00;99.90
22698;DHT22;11516;51.612;7.510;2023-02-15T00:31:50;3.00;99.90
22698;DHT22;11516;51.612;7.510;2023-02-15T00:34:23;3.00;99.90
22698;DHT22;11516;51.612;7.510;2023-02-15T00:36:49;3.00;99.90
22698;DHT22;11516;51.612;7.510;2023-02-15T00:39:16;2.90;99.90
22698;DHT22;11516;51.612;7.510;2023-02-15T00:41:42;2.90;99.90
22698;DHT22;11516;51.612;7.510;2023-02-15T00:44:08;2.90;99.90
22698;DHT22;11516;51.612;7.510;2023-02-15T00:46:34;2.90;99.90
22698;DHT22;11516;51.612;7.510;2023-02-15T00:49:00;2.90;99.90
22698;DHT22;11516;51.612;7.510;2023-02-15T00:51:25;3.00;99.90
22698;DHT22;11516;51.612;7.510;2023-02-15T00:53:51;2.90;99.90
22698;DHT22;11516;51.612;7.510;2023-02-15T00:56:17;3.00;99.90
22698;DHT22;11516;51.612;7.510;2023-02-15T00:58:43;2.90;99.90
22698;DHT22;11516;51.612;7.510;2023-02-15T01:01:12;2.90;99.90
22698;DHT22;11516;51.612;7.510;2023-02-15T01:03:38;2.80;99.90
22698;DHT22;11516;51.612;7.510;2023-02-15T01:06:04;2.80;99.90
22698;DHT22;11516;51.612;7.510;2023-02-15T01:08:30;2.80;99.90
22698;DHT22;11516;51.612;7.510;2023-02-15T01:10:56;2.70;99.90
22698;DHT22;11516;51.612;7.510;2023-02-15T01:13:21;2.70;99.90
22698;DHT22;11516;51.612;7.510;2023-02-15T01:15:53;2.70;99.90
22698;DHT22;11516;51.612;7.510;2023-02-15T01:18:19;2.70;99.90
22698;DHT22;11516;51.612;7.510;2023-02-15T01:20:45;2.70;99.90
22698;DHT22;11516;51.612;7.510;2023-02-15T01:23:10;2.70;99.90
22698;DHT22;11516;51.612;7.510;2023-02-15T01:25:36;2.70;99.90
22698;DHT22;11516;51.612;7.510;2023-02-15T01:28:02;2.60;99.90
22698;DHT22;11516;51.612;7.510;2023-02-15T01:30:28;2.70;99.90
22698;DHT22;11516;51.612;7.510;2023-02-15T01:32:53;2.60;99.90
22698;DHT22;11516;51.612;7.510;2023-02-15T01:35:19;2.60;99.90
22698;DHT22;11516;51.612;7.510;2023-02-15T01:37:44;2.60;99.90
22698;DHT22;11516;51.612;7.510;2023-02-15T01:40:16;2.60;99.90
22698;DHT22;11516;51.612;7.510;2023-02-15T01:42:42;2.60;99.90
22698;DHT22;11516;51.612;7.510;2023-02-15T01:45:30;2.50;99.90
22698;DHT22;11516;51.612;7.510;2023-02-15T01:48:03;2.50;99.90
22698;DHT22;11516;51.612;7.510;2023-02-15T01:50:38;2.50;99.90
22698;DHT22;11516;51.612;7.510;2023-02-15T01:53:16;2.50;99.90
22698;DHT22;11516;51.612;7.510;2023-02-15T01:55:47;2.40;99.90
22698;DHT22;11516;51.612;7.510;2023-02-15T01:58:16;2.40;99.90
22698;DHT22;11516;51.612;7.510;2023-02-15T02:00:42;2.40;99.90
22698;DHT22;11516;51.612;7.510;2023-02-15T02:03:08;2.30;99.90
22698;DHT22;11516;51.612;7.510;2023-02-15T02:05:34;2.30;99.90
22698;DHT22;11516;51.612;7.510;2023-02-15T02:08:01;2.30;99.90
22698;DHT22;11516;51.612;7.510;2023-02-15T02:10:28;2.30;99.90
22698;DHT22;11516;51.612;7.510;2023-02-15T02:12:57;2.30;99.90
22698;DHT22;11516;51.612;7.510;2023-02-15T02:15:47;2.20;99.90
22698;DHT22;11516;51.612;7.510;2023-02-15T02:27:37;2.30;99.90
22698;DHT22;11516;51.612;7.510;2023-02-15T02:35:55;2.20;99.90
22698;DHT22;11516;51.612;7.510;2023-02-15T02:39:03;2.20;99.90
22698;DHT22;11516;51.612;7.510;2023-02-15T02:47:51;2.10;99.90
22698;DHT22;11516;51.612;7.510;2023-02-15T02:50:24;2.10;99.90
22698;DHT22;11516;51.612;7.510;2023-02-15T02:52:52;2.00;99.90
22698;DHT22;11516;51.612;7.510;2023-02-15T02:55:21;2.00;99.90
22698;DHT22;11516;51.612;7.510;2023-02-15T02:58:05;2.00;99.90
22698;DHT22;11516;51.612;7.510;2023-02-15T03:00:40;2.00;99.90
22698;DHT22;11516;51.612;7.510;2023-02-15T03:03:54;1.90;99.90
22698;DHT22;11516;51.612;7.510;2023-02-15T03:06:03;1.90;99.90
22698;DHT22;11516;51.612;7.510;2023-02-15T03:08:34;1.80;99.90
22698;DHT22;11516;51.612;7.510;2023-02-15T03:11:02;1.80;99.90
22698;DHT22;11516;51.612;7.510;2023-02-15T03:13:28;1.80;99.90
22698;DHT22;11516;51.612;7.510;2023-02-15T03:15:55;1.80;99.90
22698;DHT22;11516;51.612;7.510;2023-02-15T03:18:46;1.70;99.90
22698;DHT22;11516;51.612;7.510;2023-02-15T03:21:20;1.70;99.90
22698;DHT22;11516;51.612;7.510;2023-02-15T03:23:52;1.70;99.90
22698;DHT22;11516;51.612;7.510;2023-02-15T03:26:20;1.70;99.90
22698;DHT22;11516;51.612;7.510;2023-02-15T03:28:48;1.70;99.90
22698;DHT22;11516;51.612;7.510;2023-02-15T03:31:17;1.70;99.90
22698;DHT22;11516;51.612;7.510;2023-02-15T03:33:54;1.60;99.90
22698;DHT22;11516;51.612;7.510;2023-02-15T03:36:26;1.60;99.90
22698;DHT22;11516;51.612;7.510;2023-02-15T03:41:39;1.60;99.90
22698;DHT22;11516;51.612;7.510;2023-02-15T03:44:11;1.60;99.90
22698;DHT22;11516;51.612;7.510;2023-02-15T03:46:47;1.60;99.90
22698;DHT22;11516;51.612;7.510;2023-02-15T03:49:32;1.60;99.90
22698;DHT22;11516;51.612;7.510;2023-02-15T03:52:02;1.60;99.90
22698;DHT22;11516;51.612;7.510;2023-02-15T03:54:32;1.60;99.90
22698;DHT22;11516;51.612;7.510;2023-02-15T03:57:28;1.50;99.90
22698;DHT22;11516;51.612;7.510;2023-02-15T04:00:21;1.60;99.90
22698;DHT22;11516;51.612;7.510;2023-02-15T04:05:42;1.50;99.90
22698;DHT22;11516;51.612;7.510;2023-02-15T04:08:09;1.50;99.90
22698;DHT22;11516;51.612;7.510;2023-02-15T04:10:34;1.50;99.90
22698;DHT22;11516;51.612;7.510;2023-02-15T04:13:24;1.50;99.90
22698;DHT22;11516;51.612;7.510;2023-02-15T04:15:54;1.40;99.90
22698;DHT22;11516;51.612;7.510;2023-02-15T04:18:39;1.40;99.90
22698;DHT22;11516;51.612;7.510;2023-02-15T04:21:26;1.40;99.90
22698;DHT22;11516;51.612;7.510;2023-02-15T04:24:11;1.40;99.90
22698;DHT22;11516;51.612;7.510;2023-02-15T04:26:55;1.30;99.90
22698;DHT22;11516;51.612;7.510;2023-02-15T04:29:23;1.40;99.90
22698;DHT22;11516;51.612;7.510;2023-02-15T04:31:49;1.40;99.90
22698;DHT22;11516;51.612;7.510;2023-02-15T04:34:15;1.30;99.90
22698;DHT22;11516;51.612;7.510;2023-02-15T04:36:41;1.30;99.90
22698;DHT22;11516;51.612;7.510;2023-02-15T04:39:07;1.30;99.90
22698;DHT22;11516;51.612;7.510;2023-02-15T04:41:33;1.30;99.90
22698;DHT22;11516;51.612;7.510;2023-02-15T04:43:59;1.30;99.90
22698;DHT22;11516;51.612;7.510;2023-02-15T04:46:26;1.20;99.90
22698;DHT22;11516;51.612;7.510;2023-02-15T04:48:52;1.20;99.90
22698;DHT22;11516;51.612;7.510;2023-02-15T04:51:17;1.30;99.90
22698;DHT22;11516;51.612;7.510;2023-02-15T04:53:43;1.30;99.90
22698;DHT22;11516;51.612;7.510;2023-02-15T04:56:09;1.30;99.90
22698;DHT22;11516;51.612;7.510;2023-02-15T04:58:34;1.30;99.90
22698;DHT22;11516;51.612;7.510;2023-02-15T05:01:00;1.30;99.90
22698;DHT22;11516;51.612;7.510;2023-02-15T05:03:26;1.30;99.90
22698;DHT22;11516;51.612;7.510;2023-02-15T05:05:52;1.30;99.90
22698;DHT22;11516;51.612;7.510;2023-02-15T05:08:17;1.30;99.90
22698;DHT22;11516;51.612;7.510;2023-02-15T05:10:43;1.20;99.90
22698;DHT22;11516;51.612;7.510;2023-02-15T05:13:08;1.20;99.90
22698;DHT22;11516;51.612;7.510;2023-02-15T05:15:34;1.30;99.90
22698;DHT22;11516;51.612;7.510;2023-02-15T05:17:59;1.20;99.90
22698;DHT22;11516;51.612;7.510;2023-02-15T05:20:26;1.20;99.90
22698;DHT22;11516;51.612;7.510;2023-02-15T05:22:55;1.20;99.90
22698;DHT22;11516;51.612;7.510;2023-02-15T05:25:20;1.30;99.90
22698;DHT22;11516;51.612;7.510;2023-02-15T05:28:05;1.20;99.90
22698;DHT22;11516;51.612;7.510;2023-02-15T05:30:50;1.20;99.90
22698;DHT22;11516;51.612;7.510;2023-02-15T05:33:16;1.20;99.90
22698;DHT22;11516;51.612;7.510;2023-02-15T05:35:42;1.20;99.90
22698;DHT22;11516;51.612;7.510;2023-02-15T05:38:08;1.20;99.90
22698;DHT22;11516;51.612;7.510;2023-02-15T05:40:33;1.20;99.90
22698;DHT22;11516;51.612;7.510;2023-02-15T05:42:59;1.20;99.90
22698;DHT22;11516;51.612;7.510;2023-02-15T05:45:25;1.20;99.90
22698;DHT22;11516;51.612;7.510;2023-02-15T05:47:50;1.10;99.90
22698;DHT22;11516;51.612;7.510;2023-02-15T05:50:16;1.10;99.90
22698;DHT22;11516;51.612;7.510;2023-02-15T05:52:41;1.10;99.90
22698;DHT22;11516;51.612;7.510;2023-02-15T05:55:07;1.10;99.90
22698;DHT22;11516;51.612;7.510;2023-02-15T05:57:34;1.10;99.90
22698;DHT22;11516;51.612;7.510;2023-02-15T06:00:00;1.10;99.90
22698;DHT22;11516;51.612;7.510;2023-02-15T06:02:26;1.10;99.90
22698;DHT22;11516;51.612;7.510;2023-02-15T06:04:51;1.00;99.90
22698;DHT22;11516;51.612;7.510;2023-02-15T06:07:17;1.10;99.90
22698;DHT22;11516;51.612;7.510;2023-02-15T06:09:42;1.10;99.90
22698;DHT22;11516;51.612;7.510;2023-02-15T06:12:08;1.10;99.90
22698;DHT22;11516;51.612;7.510;2023-02-15T06:14:33;1.10;99.90
22698;DHT22;11516;51.612;7.510;2023-02-15T06:16:59;1.10;99.90
22698;DHT22;11516;51.612;7.510;2023-02-15T06:19:24;1.10;99.90
22698;DHT22;11516;51.612;7.510;2023-02-15T06:21:50;1.10;99.90
22698;DHT22;11516;51.612;7.510;2023-02-15T06:24:15;1.10;99.90
22698;DHT22;11516;51.612;7.510;2023-02-15T06:26:41;1.10;99.90
22698;DHT22;11516;51.612;7.510;2023-02-15T06:29:07;1.10;99.90
22698;DHT22;11516;51.612;7.510;2023-02-15T06:31:32;1.10;99.90
22698;DHT22;11516;51.612;7.510;2023-02-15T06:33:58;1.00;99.90
22698;DHT22;11516;51.612;7.510;2023-02-15T06:36:30;1.00;99.90
22698;DHT22;11516;51.612;7.510;2023-02-15T06:38:56;1.00;99.90
22698;DHT22;11516;51.612;7.510;2023-02-15T06:41:22;1.00;99.90
22698;DHT22;11516;51.612;7.510;2023-02-15T06:43:48;1.00;99.90
22698;DHT22;11516;51.612;7.510;2023-02-15T06:46:13;1.00;99.90
22698;DHT22;11516;51.612;7.510;2023-02-15T06:48:39;1.00;99.90
22698;DHT22;11516;51.612;7.510;2023-02-15T06:51:04;1.10;99.90
22698;DHT22;11516;51.612;7.510;2023-02-15T06:53:30;1.00;99.90
22698;DHT22;11516;51.612;7.510;2023-02-15T06:56:05;1.10;99.90
22698;DHT22;11516;51.612;7.510;2023-02-15T06:58:37;1.20;99.90
22698;DHT22;11516;51.612;7.510;2023-02-15T07:01:03;1.10;99.90
22698;DHT22;11516;51.612;7.510;2023-02-15T07:03:30;1.20;99.90
22698;DHT22;11516;51.612;7.510;2023-02-15T07:05:57;1.20;99.90
22698;DHT22;11516;51.612;7.510;2023-02-15T07:08:23;1.20;99.90
22698;DHT22;11516;51.612;7.510;2023-02-15T07:10:50;1.30;99.90
22698;DHT22;11516;51.612;7.510;2023-02-15T07:13:15;1.30;99.90
22698;DHT22;11516;51.612;7.510;2023-02-15T07:15:41;1.30;99.90
22698;DHT22;11516;51.612;7.510;2023-02-15T07:18:06;1.30;99.90
22698;DHT22;11516;51.612;7.510;2023-02-15T07:20:32;1.30;99.90
22698;DHT22;11516;51.612;7.510;2023-02-15T07:23:00;1.40;99.90
22698;DHT22;11516;51.612;7.510;2023-02-15T07:25:26;1.40;99.90
22698;DHT22;11516;51.612;7.510;2023-02-15T07:27:59;1.40;99.90
22698;DHT22;11516;51.612;7.510;2023-02-15T07:30:25;1.50;99.90
22698;DHT22;11516;51.612;7.510;2023-02-15T07:32:50;1.50;99.90
22698;DHT22;11516;51.612;7.510;2023-02-15T07:35:34;1.60;99.90
22698;DHT22;11516;51.612;7.510;2023-02-15T07:38:00;1.60;99.90
22698;DHT22;11516;51.612;7.510;2023-02-15T07:40:26;1.60;99.90
22698;DHT22;11516;51.612;7.510;2023-02-15T07:42:52;1.70;99.90
22698;DHT22;11516;51.612;7.510;2023-02-15T07:45:18;1.70;99.90
22698;DHT22;11516;51.612;7.510;2023-02-15T07:47:44;1.80;99.90
22698;DHT22;11516;51.612;7.510;2023-02-15T07:50:09;1.80;99.90
22698;DHT22;11516;51.612;7.510;2023-02-15T07:52:35;1.80;99.90
22698;DHT22;11516;51.612;7.510;2023-02-15T07:55:00;1.90;99.90
22698;DHT22;11516;51.612;7.510;2023-02-15T07:57:26;1.90;99.90
22698;DHT22;11516;51.612;7.510;2023-02-15T07:59:51;2.00;99.90
22698;DHT22;11516;51.612;7.510;2023-02-15T08:02:17;2.10;99.90
22698;DHT22;11516;51.612;7.510;2023-02-15T08:04:42;2.10;99.90
22698;DHT22;11516;51.612;7.510;2023-02-15T08:07:07;2.20;99.90
22698;DHT22;11516;51.612;7.510;2023-02-15T08:09:33;2.30;99.90
22698;DHT22;11516;51.612;7.510;2023-02-15T08:11:58;2.30;99.90
22698;DHT22;11516;51.612;7.510;2023-02-15T08:14:24;2.40;99.90
22698;DHT22;11516;51.612;7.510;2023-02-15T08:16:54;2.50;99.90
22698;DHT22;11516;51.612;7.510;2023-02-15T08:19:27;2.50;99.90
22698;DHT22;11516;51.612;7.510;2023-02-15T08:21:58;2.60;99.90
22698;DHT22;11516;51.612;7.510;2023-02-15T08:24:27;2.70;99.90
22698;DHT22;11516;51.612;7.510;2023-02-15T08:26:53;2.80;99.90
22698;DHT22;11516;51.612;7.510;2023-02-15T08:29:21;2.90;99.90
22698;DHT22;11516;51.612;7.510;2023-02-15T08:31:48;3.00;99.90
22698;DHT22;11516;51.612;7.510;2023-02-15T08:34:16;3.00;99.90
22698;DHT22;11516;51.612;7.510;2023-02-15T08:36:42;3.20;99.90
22698;DHT22;11516;51.612;7.510;2023-02-15T08:39:10;3.20;99.90
22698;DHT22;11516;51.612;7.510;2023-02-15T08:41:38;3.40;99.90
22698;DHT22;11516;51.612;7.510;2023-02-15T08:44:06;3.50;99.90
22698;DHT22;11516;51.612;7.510;2023-02-15T08:46:37;3.60;99.90
22698;DHT22;11516;51.612;7.510;2023-02-15T08:49:03;3.60;99.90
22698;DHT22;11516;51.612;7.510;2023-02-15T08:51:31;3.70;99.90
22698;DHT22;11516;51.612;7.510;2023-02-15T08:53:59;3.70;99.90
22698;DHT22;11516;51.612;7.510;2023-02-15T08:56:27;3.80;99.90
22698;DHT22;11516;51.612;7.510;2023-02-15T08:58:54;4.00;99.90
22698;DHT22;11516;51.612;7.510;2023-02-15T09:01:26;4.10;99.90
22698;DHT22;11516;51.612;7.510;2023-02-15T09:03:56;4.20;99.90
22698;DHT22;11516;51.612;7.510;2023-02-15T09:06:22;4.30;99.90
22698;DHT22;11516;51.612;7.510;2023-02-15T09:08:52;4.40;99.90
22698;DHT22;11516;51.612;7.510;2023-02-15T09:11:20;4.40;99.90
22698;DHT22;11516;51.612;7.510;2023-02-15T09:14:00;4.60;99.90
22698;DHT22;11516;51.612;7.510;2023-02-15T09:16:29;4.70;99.90
22698;DHT22;11516;51.612;7.510;2023-02-15T09:18:55;4.80;99.90
22698;DHT22;11516;51.612;7.510;2023-02-15T09:21:24;4.90;99.90
22698;DHT22;11516;51.612;7.510;2023-02-15T09:23:52;5.00;99.90
22698;DHT22;11516;51.612;7.510;2023-02-15T09:26:21;5.10;99.90
22698;DHT22;11516;51.612;7.510;2023-02-15T09:28:50;5.20;99.90
22698;DHT22;11516;51.612;7.510;2023-02-15T09:31:22;5.30;99.90
22698;DHT22;11516;51.612;7.510;2023-02-15T09:33:49;5.50;99.90
22698;DHT22;11516;51.612;7.510;2023-02-15T09:36:24;5.60;99.90
22698;DHT22;11516;51.612;7.510;2023-02-15T09:39:06;5.70;99.90
22698;DHT22;11516;51.612;7.510;2023-02-15T09:44:50;5.90;99.90
22698;DHT22;11516;51.612;7.510;2023-02-15T09:58:54;6.50;99.90
22698;DHT22;11516;51.612;7.510;2023-02-15T10:04:35;6.80;99.90
22698;DHT22;11516;51.612;7.510;2023-02-15T10:11:29;7.10;99.90
22698;DHT22;11516;51.612;7.510;2023-02-15T10:13:32;7.30;99.90
22698;DHT22;11516;51.612;7.510;2023-02-15T10:18:50;7.50;99.90
22698;DHT22;11516;51.612;7.510;2023-02-15T10:21:30;7.70;99.90
22698;DHT22;11516;51.612;7.510;2023-02-15T10:26:46;8.00;99.90
22698;DHT22;11516;51.612;7.510;2023-02-15T10:29:34;8.20;99.90
22698;DHT22;11516;51.612;7.510;2023-02-15T10:32:22;8.50;99.90
22698;DHT22;11516;51.612;7.510;2023-02-15T10:35:01;8.70;99.90
22698;DHT22;11516;51.612;7.510;2023-02-15T10:37:53;8.80;99.90
22698;DHT22;11516;51.612;7.510;2023-02-15T10:43:41;9.00;99.90
22698;DHT22;11516;51.612;7.510;2023-02-15T10:46:32;9.30;99.90
22698;DHT22;11516;51.612;7.510;2023-02-15T10:49:23;9.30;99.90
22698;DHT22;11516;51.612;7.510;2023-02-15T10:52:15;9.50;99.90
22698;DHT22;11516;51.612;7.510;2023-02-15T10:54:50;9.50;99.90
22698;DHT22;11516;51.612;7.510;2023-02-15T10:57:40;9.60;99.90
22698;DHT22;11516;51.612;7.510;2023-02-15T11:00:13;9.70;99.90
22698;DHT22;11516;51.612;7.510;2023-02-15T11:08:24;10.30;99.90
22698;DHT22;11516;51.612;7.510;2023-02-15T11:10:58;10.50;99.90
22698;DHT22;11516;51.612;7.510;2023-02-15T11:13:29;10.60;99.90
22698;DHT22;11516;51.612;7.510;2023-02-15T11:16:12;10.80;99.90
22698;DHT22;11516;51.612;7.510;2023-02-15T11:19:08;10.90;99.90
22698;DHT22;11516;51.612;7.510;2023-02-15T11:21:44;11.10;99.90
22698;DHT22;11516;51.612;7.510;2023-02-15T11:24:13;11.20;99.90
22698;DHT22;11516;51.612;7.510;2023-02-15T11:26:46;11.30;99.90
22698;DHT22;11516;51.612;7.510;2023-02-15T11:29:27;11.40;99.90
22698;DHT22;11516;51.612;7.510;2023-02-15T11:34:34;11.70;99.90
22698;DHT22;11516;51.612;7.510;2023-02-15T11:37:06;12.00;99.90
22698;DHT22;11516;51.612;7.510;2023-02-15T11:39:33;12.40;99.90
22698;DHT22;11516;51.612;7.510;2023-02-15T11:42:06;13.00;99.90
22698;DHT22;11516;51.612;7.510;2023-02-15T11:44:44;13.90;98.10
22698;DHT22;11516;51.612;7.510;2023-02-15T11:47:13;14.50;91.70
22698;DHT22;11516;51.612;7.510;2023-02-15T11:49:39;15.00;89.40
22698;DHT22;11516;51.612;7.510;2023-02-15T11:52:12;15.30;86.90
22698;DHT22;11516;51.612;7.510;2023-02-15T11:54:43;15.80;81.70
22698;DHT22;11516;51.612;7.510;2023-02-15T11:57:37;16.20;80.10
22698;DHT22;11516;51.612;7.510;2023-02-15T12:00:12;16.40;75.40
22698;DHT22;11516;51.612;7.510;2023-02-15T12:02:45;16.50;74.10
22698;DHT22;11516;51.612;7.510;2023-02-15T12:05:16;16.90;72.30
22698;DHT22;11516;51.612;7.510;2023-02-15T12:07:48;17.70;69.60
22698;DHT22;11516;51.612;7.510;2023-02-15T12:10:22;17.70;67.00
22698;DHT22;11516;51.612;7.510;2023-02-15T12:13:12;17.90;66.50
22698;DHT22;11516;51.612;7.510;2023-02-15T12:15:40;18.10;66.00
22698;DHT22;11516;51.612;7.510;2023-02-15T12:20:43;17.70;64.50
22698;DHT22;11516;51.612;7.510;2023-02-15T12:23:13;17.50;64.10
22698;DHT22;11516;51.612;7.510;2023-02-15T12:25:50;17.10;65.80
22698;DHT22;11516;51.612;7.510;2023-02-15T12:28:35;17.10;65.70
22698;DHT22;11516;51.612;7.510;2023-02-15T12:31:09;17.10;65.20
22698;DHT22;11516;51.612;7.510;2023-02-15T12:33:39;17.30;65.60
22698;DHT22;11516;51.612;7.510;2023-02-15T12:36:15;16.90;66.70
22698;DHT22;11516;51.612;7.510;2023-02-15T12:38:42;17.40;64.60
22698;DHT22;11516;51.612;7.510;2023-02-15T12:41:23;17.40;63.60
22698;DHT22;11516;51.612;7.510;2023-02-15T12:46:28;17.10;64.50
22698;DHT22;11516;51.612;7.510;2023-02-15T12:51:53;17.70;63.50
22698;DHT22;11516;51.612;7.510;2023-02-15T12:57:20;17.60;63.90
22698;DHT22;11516;51.612;7.510;2023-02-15T13:00:01;17.30;61.90
22698;DHT22;11516;51.612;7.510;2023-02-15T13:02:44;17.10;63.30
22698;DHT22;11516;51.612;7.510;2023-02-15T13:05:42;17.50;63.00
22698;DHT22;11516;51.612;7.510;2023-02-15T13:08:30;17.90;62.30
22698;DHT22;11516;51.612;7.510;2023-02-15T13:11:06;18.20;61.00
22698;DHT22;11516;51.612;7.510;2023-02-15T13:13:36;17.70;60.00
22698;DHT22;11516;51.612;7.510;2023-02-15T13:16:11;17.80;60.70
22698;DHT22;11516;51.612;7.510;2023-02-15T13:18:45;18.10;60.20
22698;DHT22;11516;51.612;7.510;2023-02-15T13:21:19;18.40;59.80
22698;DHT22;11516;51.612;7.510;2023-02-15T13:23:48;18.40;58.50
22698;DHT22;11516;51.612;7.510;2023-02-15T13:26:18;18.30;59.40
22698;DHT22;11516;51.612;7.510;2023-02-15T13:28:48;18.10;59.20
22698;DHT22;11516;51.612;7.510;2023-02-15T13:31:18;18.00;59.40
22698;DHT22;11516;51.612;7.510;2023-02-15T13:34:09;18.40;59.00
22698;DHT22;11516;51.612;7.510;2023-02-15T13:36:41;18.60;59.00
22698;DHT22;11516;51.612;7.510;2023-02-15T13:47:30;18.70;58.00
22698;DHT22;11516;51.612;7.510;2023-02-15T13:55:52;18.60;58.50
22698;DHT22;11516;51.612;7.510;2023-02-15T13:58:28;18.60;57.70
22698;DHT22;11516;51.612;7.510;2023-02-15T14:01:06;18.80;57.40
22698;DHT22;11516;51.612;7.510;2023-02-15T14:09:17;19.30;56.20
22698;DHT22;11516;51.612;7.510;2023-02-15T14:17:34;18.70;58.70
22698;DHT22;11516;51.612;7.510;2023-02-15T14:22:36;18.90;57.90
22698;DHT22;11516;51.612;7.510;2023-02-15T14:25:27;19.00;58.20
22698;DHT22;11516;51.612;7.510;2023-02-15T14:28:16;19.30;57.10
22698;DHT22;11516;51.612;7.510;2023-02-15T14:30:48;19.10;57.30
22698;DHT22;11516;51.612;7.510;2023-02-15T14:35:40;19.60;55.50
22698;DHT22;11516;51.612;7.510;2023-02-15T14:38:18;19.80;54.20
22698;DHT22;11516;51.612;7.510;2023-02-15T14:47:14;19.70;52.80
22698;DHT22;11516;51.612;7.510;2023-02-15T14:49:42;19.20;53.10
22698;DHT22;11516;51.612;7.510;2023-02-15T14:52:12;19.20;53.30
22698;DHT22;11516;51.612;7.510;2023-02-15T15:02:49;18.20;54.20
22698;DHT22;11516;51.612;7.510;2023-02-15T15:07:55;17.20;56.40
22698;DHT22;11516;51.612;7.510;2023-02-15T15:12:49;16.70;57.30
22698;DHT22;11516;51.612;7.510;2023-02-15T15:15:33;16.50;57.90
22698;DHT22;11516;51.612;7.510;2023-02-15T15:18:10;16.30;58.10
22698;DHT22;11516;51.612;7.510;2023-02-15T15:20:55;15.90;58.80
22698;DHT22;11516;51.612;7.510;2023-02-15T15:31:31;15.50;60.80
22698;DHT22;11516;51.612;7.510;2023-02-15T15:37:30;15.30;61.50
22698;DHT22;11516;51.612;7.510;2023-02-15T15:40:32;15.30;62.10
22698;DHT22;11516;51.612;7.510;2023-02-15T15:43:30;15.10;62.70
22698;DHT22;11516;51.612;7.510;2023-02-15T15:46:13;15.00;63.30
22698;DHT22;11516;51.612;7.510;2023-02-15T15:48:41;14.90;64.30
22698;DHT22;11516;51.612;7.510;2023-02-15T15:51:18;14.70;64.80
22698;DHT22;11516;51.612;7.510;2023-02-15T15:53:47;14.60;64.70
22698;DHT22;11516;51.612;7.510;2023-02-15T15:56:19;14.50;65.10
22698;DHT22;11516;51.612;7.510;2023-02-15T15:58:56;14.30;66.40
22698;DHT22;11516;51.612;7.510;2023-02-15T16:01:31;14.20;66.20
22698;DHT22;11516;51.612;7.510;2023-02-15T16:04:00;14.10;66.80
22698;DHT22;11516;51.612;7.510;2023-02-15T16:08:52;13.80;67.90
22698;DHT22;11516;51.612;7.510;2023-02-15T16:11:22;13.60;68.70
22698;DHT22;11516;51.612;7.510;2023-02-15T16:13:48;13.40;69.60
22698;DHT22;11516;51.612;7.510;2023-02-15T16:16:20;13.20;71.10
22698;DHT22;11516;51.612;7.510;2023-02-15T16:18:46;13.10;71.70
22698;DHT22;11516;51.612;7.510;2023-02-15T16:21:23;12.90;72.30
22698;DHT22;11516;51.612;7.510;2023-02-15T16:29:30;12.60;74.30
22698;DHT22;11516;51.612;7.510;2023-02-15T16:32:01;12.50;74.70
22698;DHT22;11516;51.612;7.510;2023-02-15T16:34:27;12.40;75.70
22698;DHT22;11516;51.612;7.510;2023-02-15T16:37:19;12.30;76.20
22698;DHT22;11516;51.612;7.510;2023-02-15T16:39:45;12.20;77.50
22698;DHT22;11516;51.612;7.510;2023-02-15T16:42:15;12.00;77.10
22698;DHT22;11516;51.612;7.510;2023-02-15T16:44:41;12.00;77.50
22698;DHT22;11516;51.612;7.510;2023-02-15T16:47:29;11.90;78.30
22698;DHT22;11516;51.612;7.510;2023-02-15T16:49:59;11.70;79.80
22698;DHT22;11516;51.612;7.510;2023-02-15T16:52:27;11.60;81.50
22698;DHT22;11516;51.612;7.510;2023-02-15T16:54:59;11.50;82.60
22698;DHT22;11516;51.612;7.510;2023-02-15T16:57:28;11.40;83.70
22698;DHT22;11516;51.612;7.510;2023-02-15T17:00:00;11.30;89.00
22698;DHT22;11516;51.612;7.510;2023-02-15T17:02:28;11.10;89.80
22698;DHT22;11516;51.612;7.510;2023-02-15T17:05:04;11.00;90.80
22698;DHT22;11516;51.612;7.510;2023-02-15T17:07:32;10.90;91.10
22698;DHT22;11516;51.612;7.510;2023-02-15T17:09:59;10.80;95.30
22698;DHT22;11516;51.612;7.510;2023-02-15T17:12:47;10.70;97.00
22698;DHT22;11516;51.612;7.510;2023-02-15T17:15:43;10.60;97.40
22698;DHT22;11516;51.612;7.510;2023-02-15T17:18:21;10.50;97.80
22698;DHT22;11516;51.612;7.510;2023-02-15T17:20:49;10.40;99.50
22698;DHT22;11516;51.612;7.510;2023-02-15T17:23:35;10.40;99.90
22698;DHT22;11516;51.612;7.510;2023-02-15T17:26:22;10.30;99.90
22698;DHT22;11516;51.612;7.510;2023-02-15T17:28:55;10.40;99.90
22698;DHT22;11516;51.612;7.510;2023-02-15T17:31:25;10.30;99.90
22698;DHT22;11516;51.612;7.510;2023-02-15T17:33:54;10.30;99.90
22698;DHT22;11516;51.612;7.510;2023-02-15T17:36:22;10.40;99.90
22698;DHT22;11516;51.612;7.510;2023-02-15T17:39:18;10.50;98.70
22698;DHT22;11516;51.612;7.510;2023-02-15T17:41:45;10.50;99.80
22698;DHT22;11516;51.612;7.510;2023-02-15T17:44:12;10.60;99.50
22698;DHT22;11516;51.612;7.510;2023-02-15T17:46:40;10.60;98.80
22698;DHT22;11516;51.612;7.510;2023-02-15T17:49:10;10.60;98.80
22698;DHT22;11516;51.612;7.510;2023-02-15T17:51:39;10.50;99.20
22698;DHT22;11516;51.612;7.510;2023-02-15T17:54:08;10.40;99.90
22698;DHT22;11516;51.612;7.510;2023-02-15T17:56:52;10.30;99.90
22698;DHT22;11516;51.612;7.510;2023-02-15T17:59:17;10.10;99.90
22698;DHT22;11516;51.612;7.510;2023-02-15T18:01:47;10.00;99.90
22698;DHT22;11516;51.612;7.510;2023-02-15T18:04:32;10.00;99.90
22698;DHT22;11516;51.612;7.510;2023-02-15T18:07:17;9.90;99.90
22698;DHT22;11516;51.612;7.510;2023-02-15T18:10:12;9.80;99.90
22698;DHT22;11516;51.612;7.510;2023-02-15T18:12:57;9.60;99.90
22698;DHT22;11516;51.612;7.510;2023-02-15T18:15:22;9.60;99.90
22698;DHT22;11516;51.612;7.510;2023-02-15T18:17:49;9.50;99.90
22698;DHT22;11516;51.612;7.510;2023-02-15T18:20:24;9.40;99.90
22698;DHT22;11516;51.612;7.510;2023-02-15T18:22:52;9.30;99.90
22698;DHT22;11516;51.612;7.510;2023-02-15T18:25:20;9.20;99.90
22698;DHT22;11516;51.612;7.510;2023-02-15T18:27:47;9.20;99.90
22698;DHT22;11516;51.612;7.510;2023-02-15T18:30:15;9.20;99.90
22698;DHT22;11516;51.612;7.510;2023-02-15T18:32:41;9.20;99.90